createdAt,value
2018-12-21T00:01:23.295Z,3.07
2018-12-21T00:03:50.878Z,2.90
2018-12-21T00:06:18.512Z,3.60
2018-12-21T00:08:46.250Z,2.60
2018-12-21T00:11:13.842Z,3.10
2018-12-21T00:13:42.167Z,3.50
2018-12-21T00:16:10.256Z,2.87
2018-12-21T00:18:37.939Z,2.93
2018-12-21T00:21:05.585Z,3.23
2018-12-21T00:23:33.202Z,2.77
2018-12-21T00:26:00.887Z,3.57
2018-12-21T00:28:29.196Z,3.47
2018-12-21T00:31:02.509Z,3.33
2018-12-21T00:33:36.455Z,3.00
2018-12-21T00:36:09.882Z,3.10
2018-12-21T00:38:43.063Z,3.10
2018-12-21T00:41:14.249Z,2.53
2018-12-21T00:43:44.790Z,3.07
2018-12-21T00:46:14.375Z,2.97
2018-12-21T00:48:42.002Z,3.23
2018-12-21T00:51:09.705Z,3.23
2018-12-21T00:53:37.390Z,3.90
2018-12-21T00:56:04.979Z,3.30
2018-12-21T00:58:32.599Z,2.77
2018-12-21T01:01:00.178Z,3.63
2018-12-21T01:03:27.794Z,3.17
2018-12-21T01:05:55.382Z,3.07
2018-12-21T01:08:23.111Z,2.93
2018-12-21T01:10:50.705Z,2.87
2018-12-21T01:13:19.076Z,3.27
2018-12-21T01:15:46.659Z,3.20
2018-12-21T01:18:14.549Z,3.27
2018-12-21T01:20:42.313Z,3.23
2018-12-21T01:23:09.914Z,3.03
2018-12-21T01:25:37.542Z,3.17
2018-12-21T01:28:05.886Z,3.13
2018-12-21T01:30:33.502Z,3.10
2018-12-21T01:33:01.099Z,2.77
2018-12-21T01:35:28.897Z,3.00
2018-12-21T01:37:57.230Z,3.20
2018-12-21T01:40:24.859Z,2.60
2018-12-21T01:42:52.459Z,2.60
2018-12-21T01:45:20.079Z,3.00
2018-12-21T01:47:47.671Z,2.57
2018-12-21T01:50:15.882Z,2.93
2018-12-21T01:52:44.064Z,2.50
2018-12-21T01:55:12.342Z,2.47
2018-12-21T01:57:39.992Z,2.67
2018-12-21T02:00:08.246Z,3.03
2018-12-21T02:02:35.837Z,2.90
2018-12-21T02:05:03.563Z,2.53
2018-12-21T02:07:31.147Z,2.80
2018-12-21T02:09:59.911Z,3.00
2018-12-21T02:12:27.495Z,2.67
2018-12-21T02:14:55.785Z,2.67
2018-12-21T02:17:23.375Z,2.97
2018-12-21T02:19:50.986Z,2.67
2018-12-21T02:22:18.572Z,3.07
2018-12-21T02:24:46.231Z,2.60
2018-12-21T02:27:14.366Z,2.73
2018-12-21T02:29:42.118Z,3.00
2018-12-21T02:32:09.721Z,2.90
2018-12-21T02:34:37.341Z,2.97
2018-12-21T02:37:04.971Z,2.70
2018-12-21T02:39:32.606Z,2.80
2018-12-21T02:42:00.989Z,2.60
2018-12-21T02:44:28.583Z,3.10
2018-12-21T02:46:56.308Z,2.80
2018-12-21T02:49:23.894Z,2.63
2018-12-21T02:51:51.591Z,3.20
2018-12-21T02:54:19.775Z,2.93
2018-12-21T02:56:47.398Z,2.77
2018-12-21T02:59:14.994Z,3.33
2018-12-21T03:01:42.629Z,3.00
2018-12-21T03:04:10.220Z,2.70
2018-12-21T03:06:37.975Z,2.80
2018-12-21T03:09:07.620Z,3.10
2018-12-21T03:11:35.381Z,2.67
2018-12-21T03:14:02.977Z,2.73
2018-12-21T03:16:30.601Z,2.60
2018-12-21T03:18:58.198Z,3.00
2018-12-21T03:21:25.827Z,2.90
2018-12-21T03:23:53.499Z,2.90
2018-12-21T03:26:21.132Z,3.23
2018-12-21T03:28:48.725Z,2.97
2018-12-21T03:31:16.356Z,3.00
2018-12-21T03:33:43.954Z,3.10
2018-12-21T03:36:11.588Z,2.83
2018-12-21T03:38:39.185Z,3.30
2018-12-21T03:41:06.822Z,3.00
2018-12-21T03:43:35.282Z,3.00
2018-12-21T03:46:03.370Z,3.00
2018-12-21T03:48:30.954Z,3.37
2018-12-21T03:50:58.556Z,3.30
2018-12-21T03:53:26.242Z,3.17
2018-12-21T03:55:53.844Z,2.80
2018-12-21T03:58:21.470Z,3.33
2018-12-21T04:00:49.065Z,3.30
2018-12-21T04:03:16.694Z,3.40
2018-12-21T04:05:44.292Z,3.00
2018-12-21T04:08:11.926Z,3.37
2018-12-21T04:10:39.516Z,2.77
2018-12-21T04:13:07.144Z,3.10
2018-12-21T04:15:34.726Z,2.80
2018-12-21T04:18:02.348Z,3.00
2018-12-21T04:20:30.688Z,2.90
2018-12-21T04:22:58.318Z,2.60
2018-12-21T04:25:25.914Z,2.57
2018-12-21T04:27:53.959Z,3.10
2018-12-21T04:30:21.548Z,2.60
2018-12-21T04:32:49.310Z,2.80
2018-12-21T04:35:16.903Z,3.00
2018-12-21T04:37:44.711Z,2.80
2018-12-21T04:40:12.450Z,3.23
2018-12-21T04:42:40.079Z,3.10
2018-12-21T04:45:08.050Z,3.00
2018-12-21T04:47:35.678Z,3.10
2018-12-21T04:50:03.270Z,3.30
2018-12-21T04:52:30.893Z,3.00
2018-12-21T04:54:59.303Z,3.57
2018-12-21T04:57:26.920Z,3.57
2018-12-21T04:59:54.514Z,3.30
2018-12-21T05:02:22.140Z,3.73
2018-12-21T05:04:49.760Z,4.50
2018-12-21T05:07:17.390Z,3.77
2018-12-21T05:09:44.978Z,4.20
2018-12-21T05:12:12.611Z,4.17
2018-12-21T05:14:40.211Z,3.80
2018-12-21T05:17:07.950Z,3.10
2018-12-21T05:19:35.679Z,3.37
2018-12-21T05:22:03.311Z,3.50
2018-12-21T05:24:31.721Z,3.27
2018-12-21T05:27:00.043Z,3.30
2018-12-21T05:29:27.632Z,3.10
2018-12-21T05:31:55.250Z,3.40
2018-12-21T05:34:22.830Z,3.10
2018-12-21T05:36:50.452Z,3.70
2018-12-21T05:39:18.068Z,3.47
2018-12-21T05:41:45.654Z,3.37
2018-12-21T05:44:13.299Z,3.80
2018-12-21T05:46:40.899Z,2.60
2018-12-21T05:49:08.521Z,3.30
2018-12-21T05:51:36.117Z,3.27
2018-12-21T05:54:03.913Z,3.03
2018-12-21T05:56:31.504Z,3.10
2018-12-21T05:58:59.132Z,3.40
2018-12-21T06:01:26.726Z,3.50
2018-12-21T06:03:54.354Z,3.20
2018-12-21T06:06:21.946Z,3.13
2018-12-21T06:08:49.578Z,3.20
2018-12-21T06:11:17.159Z,2.90
2018-12-21T06:13:44.896Z,3.07
2018-12-21T06:16:12.579Z,2.90
2018-12-21T06:18:40.208Z,3.10
2018-12-21T06:21:07.803Z,3.20
2018-12-21T06:23:35.430Z,3.10
2018-12-21T06:26:03.024Z,4.07
2018-12-21T06:28:44.274Z,3.90
2018-12-21T06:31:12.466Z,3.67
2018-12-21T06:33:40.630Z,3.47
2018-12-21T06:36:08.230Z,3.37
2018-12-21T06:38:35.852Z,3.20
2018-12-21T06:41:04.092Z,3.37
2018-12-21T06:43:32.746Z,3.50
2018-12-21T06:46:00.342Z,3.17
2018-12-21T06:48:27.967Z,3.20
2018-12-21T06:50:57.377Z,3.13
2018-12-21T06:53:25.004Z,2.83
2018-12-21T06:55:52.857Z,3.50
2018-12-21T06:58:20.477Z,2.53
2018-12-21T07:00:48.063Z,3.20
2018-12-21T07:03:17.241Z,3.20
2018-12-21T07:05:45.246Z,2.90
2018-12-21T07:08:15.277Z,2.73
2018-12-21T07:10:43.130Z,2.97
2018-12-21T07:13:10.755Z,3.20
2018-12-21T07:15:40.197Z,3.00
2018-12-21T07:18:08.520Z,3.07
2018-12-21T07:20:52.186Z,2.90
2018-12-21T07:34:04.999Z,3.40
2018-12-21T07:36:33.786Z,3.40
2018-12-21T07:39:01.404Z,3.10
2018-12-21T07:41:28.995Z,2.97
2018-12-21T07:43:56.623Z,3.13
2018-12-21T07:46:24.214Z,3.40
2018-12-21T07:48:54.174Z,3.20
2018-12-21T07:51:21.770Z,2.80
2018-12-21T07:53:49.763Z,3.30
2018-12-21T07:56:17.356Z,3.17
2018-12-21T07:58:44.988Z,4.27
2018-12-21T08:01:12.577Z,3.97
2018-12-21T08:03:41.434Z,2.70
2018-12-21T08:06:09.023Z,3.00
2018-12-21T08:08:36.655Z,3.27
2018-12-21T08:11:04.244Z,2.90
2018-12-21T08:13:31.872Z,2.90
2018-12-21T08:15:59.472Z,3.37
2018-12-21T08:18:27.106Z,3.67
2018-12-21T08:20:54.700Z,3.67
2018-12-21T08:23:22.294Z,3.20
2018-12-21T08:25:50.251Z,3.20
2018-12-21T08:28:17.847Z,2.93
2018-12-21T08:30:45.480Z,3.03
2018-12-21T08:33:13.077Z,2.97
2018-12-21T08:35:40.696Z,3.00
2018-12-21T08:38:09.114Z,3.50
2018-12-21T08:40:36.747Z,3.80
2018-12-21T08:43:04.337Z,3.10
2018-12-21T08:45:32.706Z,3.30
2018-12-21T08:48:00.292Z,3.20
2018-12-21T08:50:27.909Z,3.00
2018-12-21T08:55:26.720Z,3.17
2018-12-21T08:58:01.570Z,2.80
2018-12-21T09:00:29.194Z,2.67
2018-12-21T09:02:56.887Z,2.70
2018-12-21T09:05:25.007Z,2.97
2018-12-21T09:07:52.610Z,2.93
2018-12-21T09:12:49.886Z,2.57
2018-12-21T09:15:17.608Z,2.83
2018-12-21T09:17:45.214Z,2.90
2018-12-21T09:20:12.831Z,2.70
2018-12-21T09:22:40.424Z,2.53
2018-12-21T09:25:08.090Z,3.00
2018-12-21T09:27:35.683Z,2.80
2018-12-21T09:30:04.013Z,2.90
2018-12-21T09:32:32.215Z,3.33
2018-12-21T09:34:59.834Z,3.53
2018-12-21T09:37:27.462Z,3.00
2018-12-21T09:39:55.084Z,3.50
2018-12-21T09:42:22.678Z,3.50
2018-12-21T09:44:52.566Z,3.20
2018-12-21T09:47:19.940Z,2.70
2018-12-21T09:49:47.518Z,2.53
2018-12-21T09:52:15.725Z,2.00
2018-12-21T09:54:43.325Z,2.13
2018-12-21T09:57:10.957Z,2.17
2018-12-21T09:59:38.554Z,2.33
2018-12-21T10:02:06.399Z,1.90
2018-12-21T10:04:33.987Z,2.10
2018-12-21T10:07:01.614Z,2.20
2018-12-21T10:09:29.347Z,2.40
2018-12-21T10:11:56.974Z,2.30
2018-12-21T10:14:24.565Z,2.47
2018-12-21T10:16:52.714Z,2.50
2018-12-21T10:19:20.307Z,2.50
2018-12-21T10:21:47.933Z,2.10
2018-12-21T10:24:18.581Z,2.27
2018-12-21T10:26:45.979Z,2.90
2018-12-21T10:29:13.566Z,2.70
2018-12-21T10:31:41.194Z,3.03
2018-12-21T10:34:09.435Z,2.73
2018-12-21T10:36:37.138Z,3.40
2018-12-21T10:39:06.121Z,2.80
2018-12-21T10:41:34.201Z,2.37
2018-12-21T10:46:45.672Z,1.90
2018-12-21T10:49:13.262Z,2.40
2018-12-21T10:51:40.896Z,1.97
2018-12-21T10:54:09.189Z,2.10
2018-12-21T10:56:36.830Z,2.20
2018-12-21T10:59:04.429Z,2.10
2018-12-21T11:01:32.322Z,2.77
2018-12-21T11:04:00.863Z,1.80
2018-12-21T11:06:28.535Z,2.00
2018-12-21T11:08:56.138Z,2.10
2018-12-21T11:11:23.758Z,2.37
2018-12-21T11:13:51.359Z,2.00
2018-12-21T11:16:18.947Z,2.10
2018-12-21T11:18:46.575Z,2.10
2018-12-21T11:21:14.765Z,1.80
2018-12-21T11:23:42.383Z,1.80
2018-12-21T11:26:10.362Z,2.20
2018-12-21T11:28:37.987Z,2.00
2018-12-21T11:31:05.664Z,2.13
2018-12-21T11:33:33.297Z,2.30
2018-12-21T11:36:00.889Z,2.20
2018-12-21T11:38:28.528Z,2.00
2018-12-21T11:40:56.220Z,1.90
2018-12-21T11:43:24.145Z,2.27
2018-12-21T11:45:51.835Z,2.10
2018-12-21T11:48:19.461Z,2.30
2018-12-21T11:50:47.057Z,2.17
2018-12-21T11:53:14.753Z,2.13
2018-12-21T11:55:42.392Z,2.10
2018-12-21T11:58:10.019Z,1.93
2018-12-21T12:00:37.634Z,1.63
2018-12-21T12:03:05.370Z,1.70
2018-12-21T12:05:33.025Z,2.10
2018-12-21T12:08:01.098Z,2.10
2018-12-21T12:10:28.687Z,1.73
2018-12-21T12:12:56.324Z,2.00
2018-12-21T12:15:23.911Z,2.17
2018-12-21T12:17:51.531Z,1.90
2018-12-21T12:20:19.170Z,2.20
2018-12-21T12:22:46.871Z,1.93
2018-12-21T12:25:14.522Z,2.40
2018-12-21T12:27:42.149Z,2.10
2018-12-21T12:30:09.908Z,2.40
2018-12-21T12:32:37.930Z,2.10
2018-12-21T12:35:06.224Z,2.23
2018-12-21T12:37:33.886Z,2.30
2018-12-21T12:40:01.475Z,2.00
2018-12-21T12:42:29.059Z,2.20
2018-12-21T12:44:56.677Z,1.87
2018-12-21T12:47:24.296Z,2.50
2018-12-21T12:49:52.047Z,2.33
2018-12-21T12:52:19.651Z,2.90
2018-12-21T12:54:47.277Z,2.40
2018-12-21T12:57:14.871Z,2.23
2018-12-21T12:59:42.605Z,2.30
2018-12-21T13:02:10.725Z,2.30
2018-12-21T13:04:38.366Z,2.47
2018-12-21T13:07:05.962Z,2.20
2018-12-21T13:09:33.583Z,2.57
2018-12-21T13:12:01.172Z,1.90
2018-12-21T13:14:28.981Z,2.13
2018-12-21T13:16:56.569Z,1.90
2018-12-21T13:19:24.195Z,1.80
2018-12-21T13:21:51.788Z,2.27
2018-12-21T13:24:19.415Z,2.20
2018-12-21T13:26:47.898Z,2.00
2018-12-21T13:29:15.527Z,2.00
2018-12-21T13:31:43.119Z,1.57
2018-12-21T13:34:11.515Z,1.80
2018-12-21T13:36:39.167Z,2.27
2018-12-21T13:39:07.136Z,1.87
2018-12-21T13:41:37.998Z,2.10
2018-12-21T13:44:09.305Z,1.90
2018-12-21T13:46:38.692Z,2.30
2018-12-21T13:49:06.312Z,1.60
2018-12-21T13:51:33.908Z,2.00
2018-12-21T13:54:01.709Z,2.33
2018-12-21T13:56:29.307Z,2.30
2018-12-21T13:59:01.414Z,2.37
2018-12-21T14:01:29.316Z,2.20
2018-12-21T14:03:56.944Z,2.00
2018-12-21T14:06:25.379Z,1.83
2018-12-21T14:08:52.998Z,2.27
2018-12-21T14:11:20.598Z,2.30
2018-12-21T14:13:48.228Z,3.53
2018-12-21T14:16:15.817Z,2.20
2018-12-21T14:18:43.415Z,2.20
2018-12-21T14:21:11.036Z,2.23
2018-12-21T14:23:38.624Z,2.00
2018-12-21T14:26:06.278Z,2.30
2018-12-21T14:28:33.874Z,1.90
2018-12-21T14:31:01.496Z,2.07
2018-12-21T14:33:29.077Z,1.90
2018-12-21T14:35:56.694Z,2.00
2018-12-21T14:38:24.293Z,2.20
2018-12-21T14:40:52.434Z,2.10
2018-12-21T14:43:21.265Z,2.10
2018-12-21T14:45:48.893Z,2.20
2018-12-21T14:48:16.481Z,1.90
2018-12-21T14:50:44.114Z,2.00
2018-12-21T14:53:11.815Z,1.83
2018-12-21T14:55:39.442Z,1.77
2018-12-21T14:58:07.040Z,1.80
2018-12-21T15:00:34.663Z,2.10
2018-12-21T15:03:02.258Z,2.20
2018-12-21T15:05:29.880Z,1.90
2018-12-21T15:07:57.472Z,2.10
2018-12-21T15:10:25.086Z,2.00
2018-12-21T15:12:52.714Z,2.80
2018-12-21T15:15:20.338Z,2.50
2018-12-21T15:17:47.960Z,2.00
2018-12-21T15:20:15.584Z,1.93
2018-12-21T15:22:43.173Z,2.10
2018-12-21T15:25:10.891Z,1.80
2018-12-21T15:27:38.610Z,1.90
2018-12-21T15:30:08.170Z,2.17
2018-12-21T15:32:35.765Z,1.70
2018-12-21T15:35:03.486Z,2.50
2018-12-21T15:37:31.074Z,1.70
2018-12-21T15:39:58.804Z,1.80
2018-12-21T15:42:26.499Z,2.30
2018-12-21T15:44:54.832Z,1.93
2018-12-21T15:47:23.194Z,1.90
2018-12-21T15:49:50.812Z,2.10
2018-12-21T15:52:18.539Z,2.20
2018-12-21T15:54:46.127Z,1.93
2018-12-21T15:57:13.900Z,2.03
2018-12-21T15:59:41.487Z,2.00
2018-12-21T16:02:09.108Z,2.20
2018-12-21T16:04:37.450Z,2.10
2018-12-21T16:07:05.066Z,1.60
2018-12-21T16:09:33.439Z,1.90
2018-12-21T16:12:01.078Z,1.83
2018-12-21T16:14:34.158Z,1.77
2018-12-21T16:16:58.985Z,2.00
2018-12-21T16:19:27.464Z,2.40
2018-12-21T16:21:55.084Z,1.90
2018-12-21T16:24:22.679Z,1.90
2018-12-21T16:26:50.307Z,1.73
2018-12-21T16:29:17.903Z,2.07
2018-12-21T16:31:45.531Z,1.90
2018-12-21T16:34:13.122Z,1.70
2018-12-21T16:36:40.889Z,1.93
2018-12-21T16:39:08.551Z,2.00
2018-12-21T16:41:36.804Z,1.93
2018-12-21T16:44:04.403Z,2.00
2018-12-21T16:46:32.693Z,2.03
2018-12-21T16:49:00.611Z,2.03
2018-12-21T16:51:28.393Z,1.80
2018-12-21T16:53:55.987Z,1.80
2018-12-21T16:56:23.617Z,1.97
2018-12-21T16:58:51.211Z,2.20
2018-12-21T17:01:18.879Z,2.13
2018-12-21T17:03:46.473Z,2.17
2018-12-21T17:06:14.063Z,1.70
2018-12-21T17:08:41.694Z,1.60
2018-12-21T17:11:09.286Z,1.90
2018-12-21T17:13:39.562Z,2.07
2018-12-21T17:16:07.151Z,1.80
2018-12-21T17:18:34.781Z,2.13
2018-12-21T17:21:02.816Z,2.00
2018-12-21T17:23:31.169Z,2.20
2018-12-21T17:25:58.901Z,1.83
2018-12-21T17:28:26.523Z,2.20
2018-12-21T17:30:54.129Z,2.17
2018-12-21T17:33:22.036Z,2.10
2018-12-21T17:35:49.683Z,2.10
2018-12-21T17:38:17.312Z,2.43
2018-12-21T17:40:45.676Z,1.90
2018-12-21T17:43:13.306Z,2.00
2018-12-21T17:45:40.902Z,2.30
2018-12-21T17:48:09.321Z,1.80
2018-12-21T17:50:38.661Z,2.00
2018-12-21T17:53:06.279Z,2.10
2018-12-21T17:55:33.870Z,2.20
2018-12-21T17:58:01.502Z,1.77
2018-12-21T18:00:29.891Z,2.00
2018-12-21T18:02:57.516Z,2.07
2018-12-21T18:05:25.110Z,1.90
2018-12-21T18:07:52.858Z,1.67
2018-12-21T18:10:20.450Z,2.37
2018-12-21T18:12:48.071Z,1.90
2018-12-21T18:15:15.659Z,1.87
2018-12-21T18:17:43.277Z,2.33
2018-12-21T18:20:10.871Z,2.10
2018-12-21T18:22:38.497Z,2.27
2018-12-21T18:25:10.758Z,2.03
2018-12-21T18:27:38.386Z,2.40
2018-12-21T18:30:16.437Z,2.90
2018-12-21T18:32:44.067Z,2.40
2018-12-21T18:35:12.059Z,2.00
2018-12-21T18:37:41.803Z,2.30
2018-12-21T18:40:10.811Z,2.30
2018-12-21T18:42:38.405Z,1.90
2018-12-21T18:45:07.451Z,2.23
2018-12-21T18:47:35.046Z,2.13
2018-12-21T18:50:02.775Z,2.30
2018-12-21T18:52:30.564Z,1.90
2018-12-21T18:54:58.182Z,2.00
2018-12-21T18:57:25.777Z,1.67
2018-12-21T18:59:53.399Z,2.07
2018-12-21T19:02:21.577Z,2.07
2018-12-21T19:04:49.320Z,1.90
2018-12-21T19:07:16.914Z,2.00
2018-12-21T19:09:44.581Z,1.93
2018-12-21T19:12:12.182Z,2.10
2018-12-21T19:14:39.809Z,1.90
2018-12-21T19:17:07.403Z,2.13
2018-12-21T19:19:35.026Z,1.70
2018-12-21T19:22:02.615Z,2.13
2018-12-21T19:24:30.548Z,2.00
2018-12-21T19:26:58.139Z,2.20
2018-12-21T19:29:25.760Z,1.70
2018-12-21T19:31:53.355Z,2.00
2018-12-21T19:34:20.981Z,2.00
2018-12-21T19:36:48.567Z,1.90
2018-12-21T19:39:16.188Z,1.80
2018-12-21T19:41:43.784Z,2.23
2018-12-21T19:44:12.045Z,2.30
2018-12-21T19:46:39.708Z,2.27
2018-12-21T19:49:07.331Z,2.17
2018-12-21T19:51:34.986Z,1.90
2018-12-21T19:54:08.791Z,2.67
2018-12-21T19:56:38.396Z,2.60
2018-12-21T19:59:05.987Z,2.10
2018-12-21T20:01:34.342Z,2.03
2018-12-21T20:04:02.781Z,1.70
2018-12-21T20:06:30.407Z,2.03
2018-12-21T20:08:58.002Z,1.97
2018-12-21T20:11:25.629Z,1.63
2018-12-21T20:13:53.621Z,1.70
2018-12-21T20:16:21.247Z,1.93
2018-12-21T20:18:48.843Z,1.80
2018-12-21T20:21:16.463Z,1.60
2018-12-21T20:23:44.901Z,1.87
2018-12-21T20:26:12.524Z,1.67
2018-12-21T20:28:40.115Z,2.00
2018-12-21T20:31:07.734Z,1.70
2018-12-21T20:33:35.450Z,1.50
2018-12-21T20:36:03.171Z,1.90
2018-12-21T20:38:30.759Z,1.83
2018-12-21T20:40:59.489Z,1.80
2018-12-21T20:43:27.079Z,1.87
2018-12-21T20:45:54.699Z,1.70
2018-12-21T20:48:22.295Z,1.60
2018-12-21T20:50:50.069Z,1.77
2018-12-21T20:53:17.659Z,2.00
2018-12-21T20:55:45.285Z,1.40
2018-12-21T20:58:14.173Z,1.80
2018-12-21T21:00:41.801Z,2.00
2018-12-21T21:03:09.387Z,1.80
2018-12-21T21:05:37.011Z,1.90
2018-12-21T21:08:04.610Z,1.53
2018-12-21T21:10:32.372Z,1.87
2018-12-21T21:13:00.050Z,1.63
2018-12-21T21:15:27.663Z,1.77
2018-12-21T21:17:55.298Z,1.73
2018-12-21T21:20:22.886Z,1.40
2018-12-21T21:22:50.590Z,1.43
2018-12-21T21:25:18.180Z,1.87
2018-12-21T21:27:45.807Z,1.73
2018-12-21T21:30:14.806Z,2.03
2018-12-21T21:32:42.422Z,1.80
2018-12-21T21:35:10.654Z,1.90
2018-12-21T21:37:38.275Z,2.03
2018-12-21T21:40:10.830Z,1.40
2018-12-21T21:42:38.552Z,1.80
2018-12-21T21:45:08.445Z,1.77
2018-12-21T21:47:36.063Z,2.40
2018-12-21T21:50:04.871Z,1.93
2018-12-21T21:52:32.504Z,1.83
2018-12-21T21:55:00.153Z,1.80
2018-12-21T21:57:27.862Z,1.80
2018-12-21T21:59:55.447Z,1.70
2018-12-21T22:02:23.069Z,1.60
2018-12-21T22:04:50.660Z,1.60
2018-12-21T22:07:18.281Z,1.83
2018-12-21T22:09:45.868Z,1.77
2018-12-21T22:12:13.486Z,1.70
2018-12-21T22:14:41.074Z,1.80
2018-12-21T22:17:08.931Z,1.80
2018-12-21T22:19:36.523Z,2.23
2018-12-21T22:22:04.144Z,1.90
2018-12-21T22:24:31.866Z,2.00
2018-12-21T22:26:59.485Z,1.77
2018-12-21T22:29:27.075Z,1.70
2018-12-21T22:31:54.702Z,2.00
2018-12-21T22:34:22.326Z,1.97
2018-12-21T22:36:49.902Z,1.77
2018-12-21T22:39:17.517Z,1.97
2018-12-21T22:41:46.991Z,1.97
2018-12-21T22:44:14.616Z,1.80
2018-12-21T22:46:42.199Z,1.90
2018-12-21T22:49:09.905Z,2.10
2018-12-21T22:51:37.499Z,1.80
2018-12-21T22:54:05.120Z,1.77
2018-12-21T22:56:33.061Z,1.60
2018-12-21T22:59:00.685Z,1.50
2018-12-21T23:01:28.278Z,2.00
2018-12-21T23:03:56.630Z,1.80
2018-12-21T23:06:24.215Z,1.93
2018-12-21T23:08:51.834Z,1.90
2018-12-21T23:11:19.781Z,2.10
2018-12-21T23:13:47.703Z,1.90
2018-12-21T23:16:15.742Z,1.77
2018-12-21T23:18:43.363Z,2.00
2018-12-21T23:21:11.059Z,2.00
2018-12-21T23:23:38.681Z,1.70
2018-12-21T23:26:06.272Z,1.70
2018-12-21T23:28:33.890Z,1.70
2018-12-21T23:31:01.478Z,1.70
2018-12-21T23:33:29.835Z,1.70
2018-12-21T23:35:57.416Z,1.90
2018-12-21T23:38:24.818Z,1.77
2018-12-21T23:40:52.408Z,1.63
2018-12-21T23:43:20.027Z,2.00
2018-12-21T23:45:48.275Z,1.50
2018-12-21T23:48:15.897Z,1.80
2018-12-21T23:50:43.484Z,1.53
2018-12-21T23:53:11.103Z,1.50
2018-12-21T23:55:38.687Z,1.63
2018-12-21T23:58:13.457Z,1.50
